sensor_id;sensor_type;location;lat;lon;timestamp;P1;P2;P0
55449;PMS5003;41318;58.724;50.180;2023-03-23T00:00:58;6.00;6.00;5.00
55449;PMS5003;41318;58.724;50.180;2023-03-23T00:03:29;8.20;8.20;6.80
55449;PMS5003;41318;58.724;50.180;2023-03-23T00:06:20;17.00;16.00;9.00
55449;PMS5003;41318;58.724;50.180;2023-03-23T00:08:52;5.80;5.80;4.00
55449;PMS5003;41318;58.724;50.180;2023-03-23T00:11:27;8.20;8.20;6.20
55449;PMS5003;41318;58.724;50.180;2023-03-23T00:14:00;4.80;4.80;4.00
55449;PMS5003;41318;58.724;50.180;2023-03-23T00:16:32;5.20;5.20;3.20
55449;PMS5003;41318;58.724;50.180;2023-03-23T00:19:05;6.00;6.00;4.60
55449;PMS5003;41318;58.724;50.180;2023-03-23T00:21:37;6.40;6.40;5.00
55449;PMS5003;41318;58.724;50.180;2023-03-23T00:24:13;8.40;8.40;5.80
55449;PMS5003;41318;58.724;50.180;2023-03-23T00:26:47;6.40;6.40;4.80
55449;PMS5003;41318;58.724;50.180;2023-03-23T00:29:19;1.00;1.00;1.00
55449;PMS5003;41318;58.724;50.180;2023-03-23T00:31:54;4.20;4.20;1.40
55449;PMS5003;41318;58.724;50.180;2023-03-23T00:34:27;5.60;5.20;4.00
55449;PMS5003;41318;58.724;50.180;2023-03-23T00:37:04;5.40;5.40;4.20
55449;PMS5003;41318;58.724;50.180;2023-03-23T00:39:35;0.80;0.80;0.00
55449;PMS5003;41318;58.724;50.180;2023-03-23T00:42:09;4.20;4.20;3.20
55449;PMS5003;41318;58.724;50.180;2023-03-23T00:44:40;5.80;5.80;4.80
55449;PMS5003;41318;58.724;50.180;2023-03-23T00:47:11;5.60;5.00;4.00
55449;PMS5003;41318;58.724;50.180;2023-03-23T00:50:02;5.60;5.20;2.80
55449;PMS5003;41318;58.724;50.180;2023-03-23T00:52:33;5.00;5.00;4.40
55449;PMS5003;41318;58.724;50.180;2023-03-23T00:55:04;6.00;6.00;4.00
55449;PMS5003;41318;58.724;50.180;2023-03-23T00:57:36;8.80;8.80;5.80
55449;PMS5003;41318;58.724;50.180;2023-03-23T01:00:07;5.20;5.20;4.20
55449;PMS5003;41318;58.724;50.180;2023-03-23T01:02:41;4.00;4.00;2.00
55449;PMS5003;41318;58.724;50.180;2023-03-23T01:05:15;6.40;6.40;4.80
55449;PMS5003;41318;58.724;50.180;2023-03-23T01:07:46;2.80;2.80;2.00
55449;PMS5003;41318;58.724;50.180;2023-03-23T01:10:17;6.20;4.20;2.80
55449;PMS5003;41318;58.724;50.180;2023-03-23T01:12:48;9.00;9.00;6.00
55449;PMS5003;41318;58.724;50.180;2023-03-23T01:15:19;8.20;8.20;5.20
55449;PMS5003;41318;58.724;50.180;2023-03-23T01:18:09;0.80;0.80;0.00
55449;PMS5003;41318;58.724;50.180;2023-03-23T01:20:41;6.00;5.60;5.00
55449;PMS5003;41318;58.724;50.180;2023-03-23T01:23:13;2.40;2.40;1.40
55449;PMS5003;41318;58.724;50.180;2023-03-23T01:25:44;5.00;5.00;4.00
55449;PMS5003;41318;58.724;50.180;2023-03-23T01:28:15;4.80;4.80;4.00
55449;PMS5003;41318;58.724;50.180;2023-03-23T01:30:46;7.20;7.20;5.00
55449;PMS5003;41318;58.724;50.180;2023-03-23T01:33:18;4.80;4.80;2.40
55449;PMS5003;41318;58.724;50.180;2023-03-23T01:35:48;4.00;4.00;2.00
55449;PMS5003;41318;58.724;50.180;2023-03-23T01:38:38;3.60;3.60;2.00
55449;PMS5003;41318;58.724;50.180;2023-03-23T01:41:29;5.00;5.00;4.00
55449;PMS5003;41318;58.724;50.180;2023-03-23T01:44:06;4.00;3.60;1.00
55449;PMS5003;41318;58.724;50.180;2023-03-23T01:46:47;1.00;1.00;1.00
55449;PMS5003;41318;58.724;50.180;2023-03-23T01:49:22;4.20;4.20;4.00
55449;PMS5003;41318;58.724;50.180;2023-03-23T01:51:56;0.40;0.40;0.20
55449;PMS5003;41318;58.724;50.180;2023-03-23T01:54:28;5.40;4.80;3.60
55449;PMS5003;41318;58.724;50.180;2023-03-23T01:57:03;5.80;5.80;4.00
55449;PMS5003;41318;58.724;50.180;2023-03-23T01:59:54;2.00;2.00;1.80
55449;PMS5003;41318;58.724;50.180;2023-03-23T02:02:33;1.00;1.00;0.20
55449;PMS5003;41318;58.724;50.180;2023-03-23T02:05:26;5.00;5.00;2.40
55449;PMS5003;41318;58.724;50.180;2023-03-23T02:08:00;5.00;5.00;4.20
55449;PMS5003;41318;58.724;50.180;2023-03-23T02:10:37;7.60;7.60;4.00
55449;PMS5003;41318;58.724;50.180;2023-03-23T02:13:09;5.20;5.20;4.60
55449;PMS5003;41318;58.724;50.180;2023-03-23T02:15:45;7.20;7.20;4.80
55449;PMS5003;41318;58.724;50.180;2023-03-23T02:29:02;12.40;12.40;8.00
55449;PMS5003;41318;58.724;50.180;2023-03-23T02:36:51;20.60;20.20;15.80
55449;PMS5003;41318;58.724;50.180;2023-03-23T02:39:24;15.20;14.40;9.60
55449;PMS5003;41318;58.724;50.180;2023-03-23T02:42:07;13.20;12.20;9.00
55449;PMS5003;41318;58.724;50.180;2023-03-23T02:44:40;25.80;23.20;13.20
55449;PMS5003;41318;58.724;50.180;2023-03-23T02:47:17;19.40;19.40;12.00
55449;PMS5003;41318;58.724;50.180;2023-03-23T02:49:51;20.40;19.40;12.60
55449;PMS5003;41318;58.724;50.180;2023-03-23T02:52:25;25.80;24.40;15.00
55449;PMS5003;41318;58.724;50.180;2023-03-23T02:54:57;26.20;25.40;14.40
55449;PMS5003;41318;58.724;50.180;2023-03-23T02:57:32;21.40;20.80;12.20
55449;PMS5003;41318;58.724;50.180;2023-03-23T03:00:06;27.80;27.20;14.80
55449;PMS5003;41318;58.724;50.180;2023-03-23T03:02:42;24.60;23.40;16.40
55449;PMS5003;41318;58.724;50.180;2023-03-23T03:05:38;23.60;23.60;12.00
55449;PMS5003;41318;58.724;50.180;2023-03-23T03:19:01;13.25;13.25;10.00
55449;PMS5003;41318;58.724;50.180;2023-03-23T03:21:52;10.80;10.80;8.60
55449;PMS5003;41318;58.724;50.180;2023-03-23T03:24:30;12.00;11.80;8.80
55449;PMS5003;41318;58.724;50.180;2023-03-23T03:27:02;12.00;12.00;8.20
55449;PMS5003;41318;58.724;50.180;2023-03-23T03:29:47;9.00;9.00;5.40
55449;PMS5003;41318;58.724;50.180;2023-03-23T03:32:22;12.80;12.80;8.80
55449;PMS5003;41318;58.724;50.180;2023-03-23T03:34:55;13.00;12.40;8.40
55449;PMS5003;41318;58.724;50.180;2023-03-23T03:37:26;21.20;20.60;13.00
55449;PMS5003;41318;58.724;50.180;2023-03-23T03:39:58;16.40;16.40;10.00
55449;PMS5003;41318;58.724;50.180;2023-03-23T03:42:50;13.60;13.40;9.00
55449;PMS5003;41318;58.724;50.180;2023-03-23T03:45:23;5.60;5.60;3.20
55449;PMS5003;41318;58.724;50.180;2023-03-23T03:48:14;14.20;14.20;9.20
55449;PMS5003;41318;58.724;50.180;2023-03-23T03:50:48;165.33;121.33;53.00
55449;PMS5003;41318;58.724;50.180;2023-03-23T03:53:23;23.20;22.40;13.60
55449;PMS5003;41318;58.724;50.180;2023-03-23T03:55:56;10.40;9.80;5.00
55449;PMS5003;41318;58.724;50.180;2023-03-23T03:58:50;12.20;12.20;6.60
55449;PMS5003;41318;58.724;50.180;2023-03-23T04:01:47;11.20;10.40;7.40
55449;PMS5003;41318;58.724;50.180;2023-03-23T04:04:26;11.00;11.00;5.20
55449;PMS5003;41318;58.724;50.180;2023-03-23T04:06:58;10.60;10.60;5.60
55449;PMS5003;41318;58.724;50.180;2023-03-23T04:09:31;5.60;5.40;5.40
55449;PMS5003;41318;58.724;50.180;2023-03-23T04:12:03;5.60;5.60;2.00
55449;PMS5003;41318;58.724;50.180;2023-03-23T04:14:54;10.00;9.40;6.80
55449;PMS5003;41318;58.724;50.180;2023-03-23T04:17:34;10.40;10.40;8.60
55449;PMS5003;41318;58.724;50.180;2023-03-23T04:20:08;14.80;13.80;7.20
55449;PMS5003;41318;58.724;50.180;2023-03-23T04:22:53;55.00;43.40;25.40
55449;PMS5003;41318;58.724;50.180;2023-03-23T04:25:45;1.60;0.60;0.60
55449;PMS5003;41318;58.724;50.180;2023-03-23T04:28:18;10.40;10.40;6.60
55449;PMS5003;41318;58.724;50.180;2023-03-23T04:31:27;10.00;10.00;6.40
55449;PMS5003;41318;58.724;50.180;2023-03-23T04:34:19;9.40;9.40;4.20
55449;PMS5003;41318;58.724;50.180;2023-03-23T04:36:55;5.40;5.40;2.60
55449;PMS5003;41318;58.724;50.180;2023-03-23T04:39:33;8.00;7.40;4.60
55449;PMS5003;41318;58.724;50.180;2023-03-23T04:42:08;6.00;6.00;3.80
55449;PMS5003;41318;58.724;50.180;2023-03-23T04:45:20;9.00;9.00;6.00
55449;PMS5003;41318;58.724;50.180;2023-03-23T04:47:56;11.00;11.00;7.20
55449;PMS5003;41318;58.724;50.180;2023-03-23T04:50:43;6.80;6.80;6.60
55449;PMS5003;41318;58.724;50.180;2023-03-23T04:53:25;6.20;6.20;4.20
55449;PMS5003;41318;58.724;50.180;2023-03-23T04:55:57;3.40;3.40;2.20
55449;PMS5003;41318;58.724;50.180;2023-03-23T04:58:29;8.20;8.20;5.40
55449;PMS5003;41318;58.724;50.180;2023-03-23T05:01:31;10.60;10.40;6.60
55449;PMS5003;41318;58.724;50.180;2023-03-23T05:04:14;9.60;9.60;6.60
55449;PMS5003;41318;58.724;50.180;2023-03-23T05:06:52;9.00;9.00;6.00
55449;PMS5003;41318;58.724;50.180;2023-03-23T05:09:29;15.60;15.60;10.00
55449;PMS5003;41318;58.724;50.180;2023-03-23T05:12:04;6.40;6.40;5.80
55449;PMS5003;41318;58.724;50.180;2023-03-23T05:14:53;9.80;9.60;8.20
55449;PMS5003;41318;58.724;50.180;2023-03-23T05:17:28;5.20;5.20;2.00
55449;PMS5003;41318;58.724;50.180;2023-03-23T05:20:04;8.80;8.20;5.80
55449;PMS5003;41318;58.724;50.180;2023-03-23T05:22:56;12.00;12.00;9.00
55449;PMS5003;41318;58.724;50.180;2023-03-23T05:25:36;11.20;11.20;9.80
55449;PMS5003;41318;58.724;50.180;2023-03-23T05:28:23;11.80;11.00;8.20
55449;PMS5003;41318;58.724;50.180;2023-03-23T05:31:17;10.20;10.20;8.20
55449;PMS5003;41318;58.724;50.180;2023-03-23T05:33:49;13.20;13.20;9.20
55449;PMS5003;41318;58.724;50.180;2023-03-23T05:36:37;14.00;14.00;9.80
55449;PMS5003;41318;58.724;50.180;2023-03-23T05:39:27;18.60;18.40;12.20
55449;PMS5003;41318;58.724;50.180;2023-03-23T05:42:21;18.80;18.20;11.80
55449;PMS5003;41318;58.724;50.180;2023-03-23T05:45:00;23.40;22.20;13.00
55449;PMS5003;41318;58.724;50.180;2023-03-23T05:47:32;13.00;12.60;7.20
55449;PMS5003;41318;58.724;50.180;2023-03-23T05:50:09;11.80;11.00;8.00
55449;PMS5003;41318;58.724;50.180;2023-03-23T05:52:41;10.80;10.20;7.00
55449;PMS5003;41318;58.724;50.180;2023-03-23T05:55:15;7.80;7.80;2.40
55449;PMS5003;41318;58.724;50.180;2023-03-23T05:57:52;9.20;9.20;6.20
55449;PMS5003;41318;58.724;50.180;2023-03-23T06:00:37;8.80;8.80;6.80
55449;PMS5003;41318;58.724;50.180;2023-03-23T06:03:23;8.40;8.40;7.20
55449;PMS5003;41318;58.724;50.180;2023-03-23T06:06:13;7.20;7.20;6.00
55449;PMS5003;41318;58.724;50.180;2023-03-23T06:08:55;10.40;10.20;6.00
55449;PMS5003;41318;58.724;50.180;2023-03-23T06:11:39;9.40;9.40;6.00
55449;PMS5003;41318;58.724;50.180;2023-03-23T06:14:39;7.00;6.60;4.80
55449;PMS5003;41318;58.724;50.180;2023-03-23T06:17:11;8.40;8.40;7.00
55449;PMS5003;41318;58.724;50.180;2023-03-23T06:19:42;11.00;11.00;8.00
55449;PMS5003;41318;58.724;50.180;2023-03-23T06:22:33;6.80;6.80;4.00
55449;PMS5003;41318;58.724;50.180;2023-03-23T06:25:13;9.60;9.60;7.00
55449;PMS5003;41318;58.724;50.180;2023-03-23T06:27:48;10.20;10.20;7.20
55449;PMS5003;41318;58.724;50.180;2023-03-23T06:30:19;9.40;9.40;8.00
55449;PMS5003;41318;58.724;50.180;2023-03-23T06:32:50;8.00;8.00;6.00
55449;PMS5003;41318;58.724;50.180;2023-03-23T06:35:28;6.20;5.80;3.60
55449;PMS5003;41318;58.724;50.180;2023-03-23T06:38:26;5.80;5.80;3.20
55449;PMS5003;41318;58.724;50.180;2023-03-23T06:40:59;6.60;6.60;3.20
55449;PMS5003;41318;58.724;50.180;2023-03-23T06:43:33;2.00;2.00;2.00
55449;PMS5003;41318;58.724;50.180;2023-03-23T06:46:17;3.20;3.00;2.40
55449;PMS5003;41318;58.724;50.180;2023-03-23T06:49:06;3.00;3.00;2.00
55449;PMS5003;41318;58.724;50.180;2023-03-23T06:51:48;3.80;3.80;2.80
55449;PMS5003;41318;58.724;50.180;2023-03-23T06:54:19;14.00;14.00;11.50
55449;PMS5003;41318;58.724;50.180;2023-03-23T06:56:50;6.40;6.40;3.00
55449;PMS5003;41318;58.724;50.180;2023-03-23T06:59:22;2.80;2.80;2.20
55449;PMS5003;41318;58.724;50.180;2023-03-23T07:01:53;4.00;4.00;2.50
55449;PMS5003;41318;58.724;50.180;2023-03-23T07:04:42;3.40;3.40;2.60
55449;PMS5003;41318;58.724;50.180;2023-03-23T07:07:31;6.75;6.75;4.00
55449;PMS5003;41318;58.724;50.180;2023-03-23T07:10:19;3.50;3.50;3.00
55449;PMS5003;41318;58.724;50.180;2023-03-23T07:12:50;6.20;6.20;3.60
55449;PMS5003;41318;58.724;50.180;2023-03-23T07:15:22;2.40;2.40;1.80
55449;PMS5003;41318;58.724;50.180;2023-03-23T07:17:55;3.00;3.00;2.25
55449;PMS5003;41318;58.724;50.180;2023-03-23T07:20:34;8.00;7.80;3.80
55449;PMS5003;41318;58.724;50.180;2023-03-23T07:23:07;6.20;6.20;4.00
55449;PMS5003;41318;58.724;50.180;2023-03-23T07:25:48;7.00;7.00;4.00
55449;PMS5003;41318;58.724;50.180;2023-03-23T07:28:26;6.60;6.20;3.60
55449;PMS5003;41318;58.724;50.180;2023-03-23T07:31:00;1.00;1.00;0.20
55449;PMS5003;41318;58.724;50.180;2023-03-23T07:33:31;8.00;8.00;6.60
55449;PMS5003;41318;58.724;50.180;2023-03-23T07:36:03;6.00;6.00;4.00
55449;PMS5003;41318;58.724;50.180;2023-03-23T07:38:34;3.00;3.00;2.00
55449;PMS5003;41318;58.724;50.180;2023-03-23T07:41:05;4.50;4.50;3.50
55449;PMS5003;41318;58.724;50.180;2023-03-23T07:43:36;4.00;4.00;4.00
55449;PMS5003;41318;58.724;50.180;2023-03-23T07:46:25;4.00;4.00;3.50
55449;PMS5003;41318;58.724;50.180;2023-03-23T07:49:18;4.00;4.00;3.00
55449;PMS5003;41318;58.724;50.180;2023-03-23T07:52:07;8.25;8.25;6.00
55449;PMS5003;41318;58.724;50.180;2023-03-23T07:54:39;6.50;6.50;5.00
55449;PMS5003;41318;58.724;50.180;2023-03-23T07:57:30;7.25;7.25;3.75
55449;PMS5003;41318;58.724;50.180;2023-03-23T08:00:03;6.25;6.25;4.00
55449;PMS5003;41318;58.724;50.180;2023-03-23T08:02:46;3.00;2.75;2.00
55449;PMS5003;41318;58.724;50.180;2023-03-23T08:05:58;5.00;5.00;3.00
55449;PMS5003;41318;58.724;50.180;2023-03-23T08:08:52;8.00;8.00;5.75
55449;PMS5003;41318;58.724;50.180;2023-03-23T08:11:41;5.00;5.00;3.00
55449;PMS5003;41318;58.724;50.180;2023-03-23T08:14:12;5.00;5.00;3.00
55449;PMS5003;41318;58.724;50.180;2023-03-23T08:17:03;11.25;11.25;9.00
55449;PMS5003;41318;58.724;50.180;2023-03-23T08:19:46;8.00;7.75;6.00
55449;PMS5003;41318;58.724;50.180;2023-03-23T08:22:22;7.75;7.75;6.00
55449;PMS5003;41318;58.724;50.180;2023-03-23T08:25:13;3.00;3.00;3.00
55449;PMS5003;41318;58.724;50.180;2023-03-23T08:28:07;7.00;6.50;3.00
55449;PMS5003;41318;58.724;50.180;2023-03-23T08:30:58;11.00;11.00;9.00
55449;PMS5003;41318;58.724;50.180;2023-03-23T08:33:38;9.00;9.00;7.25
55449;PMS5003;41318;58.724;50.180;2023-03-23T08:36:33;7.50;7.50;5.25
55449;PMS5003;41318;58.724;50.180;2023-03-23T08:39:18;10.40;10.40;7.00
55449;PMS5003;41318;58.724;50.180;2023-03-23T08:42:08;11.00;11.00;8.60
55449;PMS5003;41318;58.724;50.180;2023-03-23T08:44:59;16.20;15.80;10.60
55449;PMS5003;41318;58.724;50.180;2023-03-23T08:47:33;18.80;18.80;16.80
55449;PMS5003;41318;58.724;50.180;2023-03-23T08:50:24;54.20;46.60;32.00
55449;PMS5003;41318;58.724;50.180;2023-03-23T08:53:14;56.20;46.60;33.00
55449;PMS5003;41318;58.724;50.180;2023-03-23T08:55:47;66.80;54.20;36.40
55449;PMS5003;41318;58.724;50.180;2023-03-23T08:58:19;43.00;38.60;25.80
55449;PMS5003;41318;58.724;50.180;2023-03-23T09:00:50;51.00;43.80;30.20
55449;PMS5003;41318;58.724;50.180;2023-03-23T09:03:51;33.60;33.60;24.60
55449;PMS5003;41318;58.724;50.180;2023-03-23T09:06:54;55.80;46.40;30.80
55449;PMS5003;41318;58.724;50.180;2023-03-23T09:09:26;69.00;57.00;38.40
55449;PMS5003;41318;58.724;50.180;2023-03-23T09:11:57;49.40;41.80;28.20
55449;PMS5003;41318;58.724;50.180;2023-03-23T09:14:28;62.00;49.00;31.20
55449;PMS5003;41318;58.724;50.180;2023-03-23T09:17:18;81.80;65.60;44.80
55449;PMS5003;41318;58.724;50.180;2023-03-23T09:19:49;17.00;17.00;14.00
55449;PMS5003;41318;58.724;50.180;2023-03-23T09:22:21;62.00;51.40;34.20
55449;PMS5003;41318;58.724;50.180;2023-03-23T09:24:54;68.20;56.40;38.20
55449;PMS5003;41318;58.724;50.180;2023-03-23T09:27:25;55.60;47.40;32.40
55449;PMS5003;41318;58.724;50.180;2023-03-23T09:29:56;64.60;53.00;37.80
55449;PMS5003;41318;58.724;50.180;2023-03-23T09:32:28;79.00;65.60;48.60
55449;PMS5003;41318;58.724;50.180;2023-03-23T09:34:59;28.80;28.80;21.00
55449;PMS5003;41318;58.724;50.180;2023-03-23T09:37:31;61.80;51.60;34.80
55449;PMS5003;41318;58.724;50.180;2023-03-23T09:40:03;60.40;49.40;33.80
55449;PMS5003;41318;58.724;50.180;2023-03-23T09:51:11;86.40;75.40;51.80
55449;PMS5003;41318;58.724;50.180;2023-03-23T09:53:48;86.20;77.60;52.80
55449;PMS5003;41318;58.724;50.180;2023-03-23T09:56:29;55.00;47.40;32.60
55449;PMS5003;41318;58.724;50.180;2023-03-23T10:01:50;73.20;58.60;39.00
55449;PMS5003;41318;58.724;50.180;2023-03-23T10:07:05;75.60;61.00;41.00
55449;PMS5003;41318;58.724;50.180;2023-03-23T10:09:39;86.60;73.80;47.60
55449;PMS5003;41318;58.724;50.180;2023-03-23T10:15:23;9.00;8.80;6.00
55449;PMS5003;41318;58.724;50.180;2023-03-23T10:18:04;16.40;16.40;13.20
55449;PMS5003;41318;58.724;50.180;2023-03-23T10:25:41;12.25;12.25;10.75
55449;PMS5003;41318;58.724;50.180;2023-03-23T10:29:01;10.80;10.80;8.80
55449;PMS5003;41318;58.724;50.180;2023-03-23T10:31:05;4.40;4.40;4.00
55449;PMS5003;41318;58.724;50.180;2023-03-23T10:33:46;4.00;4.00;3.25
55449;PMS5003;41318;58.724;50.180;2023-03-23T10:36:19;1.00;1.00;1.00
55449;PMS5003;41318;58.724;50.180;2023-03-23T10:38:57;5.50;5.50;4.00
55449;PMS5003;41318;58.724;50.180;2023-03-23T10:41:32;3.75;3.75;3.00
55449;PMS5003;41318;58.724;50.180;2023-03-23T10:44:10;5.00;5.00;4.00
55449;PMS5003;41318;58.724;50.180;2023-03-23T10:46:45;3.25;3.25;2.00
55449;PMS5003;41318;58.724;50.180;2023-03-23T10:49:32;5.75;5.75;4.75
55449;PMS5003;41318;58.724;50.180;2023-03-23T10:54:39;9.00;9.00;5.20
55449;PMS5003;41318;58.724;50.180;2023-03-23T10:57:21;16.80;15.80;11.20
55449;PMS5003;41318;58.724;50.180;2023-03-23T11:00:01;8.50;8.50;5.50
55449;PMS5003;41318;58.724;50.180;2023-03-23T11:02:38;5.75;5.75;3.75
55449;PMS5003;41318;58.724;50.180;2023-03-23T11:05:18;4.00;4.00;2.25
55449;PMS5003;41318;58.724;50.180;2023-03-23T11:07:56;4.00;4.00;3.00
55449;PMS5003;41318;58.724;50.180;2023-03-23T11:10:34;3.75;3.75;3.50
55449;PMS5003;41318;58.724;50.180;2023-03-23T11:13:09;4.25;4.25;3.00
55449;PMS5003;41318;58.724;50.180;2023-03-23T11:15:42;8.00;8.00;5.00
55449;PMS5003;41318;58.724;50.180;2023-03-23T11:18:26;3.00;3.00;3.00
55449;PMS5003;41318;58.724;50.180;2023-03-23T11:20:59;3.00;3.00;3.00
55449;PMS5003;41318;58.724;50.180;2023-03-23T11:23:32;4.33;4.33;4.00
55449;PMS5003;41318;58.724;50.180;2023-03-23T11:28:41;4.50;4.50;3.50
55449;PMS5003;41318;58.724;50.180;2023-03-23T11:31:13;4.50;4.50;3.25
55449;PMS5003;41318;58.724;50.180;2023-03-23T11:36:19;2.50;2.50;1.75
55449;PMS5003;41318;58.724;50.180;2023-03-23T11:38:53;3.00;3.00;2.00
55449;PMS5003;41318;58.724;50.180;2023-03-23T11:41:31;2.25;2.25;2.00
55449;PMS5003;41318;58.724;50.180;2023-03-23T11:44:03;8.60;8.60;5.60
55449;PMS5003;41318;58.724;50.180;2023-03-23T11:52:05;3.00;3.00;3.00
55449;PMS5003;41318;58.724;50.180;2023-03-23T11:54:43;3.25;3.25;3.25
55449;PMS5003;41318;58.724;50.180;2023-03-23T11:57:17;4.00;4.00;3.00
55449;PMS5003;41318;58.724;50.180;2023-03-23T11:59:49;3.50;3.50;3.00
55449;PMS5003;41318;58.724;50.180;2023-03-23T12:13:13;10.50;10.50;7.75
55449;PMS5003;41318;58.724;50.180;2023-03-23T12:18:37;3.25;3.25;3.00
55449;PMS5003;41318;58.724;50.180;2023-03-23T12:26:21;2.00;2.00;2.00
55449;PMS5003;41318;58.724;50.180;2023-03-23T12:31:31;3.00;3.00;3.00
55449;PMS5003;41318;58.724;50.180;2023-03-23T12:34:16;4.75;4.75;3.00
55449;PMS5003;41318;58.724;50.180;2023-03-23T12:39:48;5.00;5.00;4.00
55449;PMS5003;41318;58.724;50.180;2023-03-23T12:45:01;4.00;4.00;3.67
55449;PMS5003;41318;58.724;50.180;2023-03-23T12:50:18;8.50;6.75;5.00
55449;PMS5003;41318;58.724;50.180;2023-03-23T12:53:00;11.75;11.25;7.50
55449;PMS5003;41318;58.724;50.180;2023-03-23T12:56:41;5.00;5.00;4.00
55449;PMS5003;41318;58.724;50.180;2023-03-23T12:58:46;9.00;9.00;6.00
55449;PMS5003;41318;58.724;50.180;2023-03-23T13:01:20;9.00;9.00;7.00
55449;PMS5003;41318;58.724;50.180;2023-03-23T13:03:57;5.00;5.00;4.00
55449;PMS5003;41318;58.724;50.180;2023-03-23T13:06:31;4.00;4.00;3.00
55449;PMS5003;41318;58.724;50.180;2023-03-23T13:09:08;4.00;4.00;3.00
55449;PMS5003;41318;58.724;50.180;2023-03-23T13:11:42;11.40;10.40;7.60
55449;PMS5003;41318;58.724;50.180;2023-03-23T13:24:46;18.80;18.40;12.20
55449;PMS5003;41318;58.724;50.180;2023-03-23T13:27:22;24.00;22.60;15.20
55449;PMS5003;41318;58.724;50.180;2023-03-23T13:29:54;11.40;11.40;9.60
55449;PMS5003;41318;58.724;50.180;2023-03-23T13:32:35;9.50;9.50;6.25
55449;PMS5003;41318;58.724;50.180;2023-03-23T13:35:12;3.75;3.75;3.25
55449;PMS5003;41318;58.724;50.180;2023-03-23T13:37:47;5.00;5.00;4.00
55449;PMS5003;41318;58.724;50.180;2023-03-23T13:40:29;5.00;5.00;5.00
55449;PMS5003;41318;58.724;50.180;2023-03-23T13:43:02;13.40;13.40;8.60
55449;PMS5003;41318;58.724;50.180;2023-03-23T13:45:45;6.60;6.60;4.00
55449;PMS5003;41318;58.724;50.180;2023-03-23T13:48:22;7.60;7.60;7.00
55449;PMS5003;41318;58.724;50.180;2023-03-23T13:50:57;7.75;7.75;4.00
55449;PMS5003;41318;58.724;50.180;2023-03-23T13:53:50;1.00;1.00;1.00
55449;PMS5003;41318;58.724;50.180;2023-03-23T13:56:41;7.67;7.67;5.33
55449;PMS5003;41318;58.724;50.180;2023-03-23T13:59:14;4.20;4.20;3.00
55449;PMS5003;41318;58.724;50.180;2023-03-23T14:01:46;11.20;11.20;7.80
55449;PMS5003;41318;58.724;50.180;2023-03-23T14:04:18;9.40;9.40;7.80
55449;PMS5003;41318;58.724;50.180;2023-03-23T14:06:50;8.80;8.80;7.80
55449;PMS5003;41318;58.724;50.180;2023-03-23T14:09:36;9.20;9.20;7.00
55449;PMS5003;41318;58.724;50.180;2023-03-23T14:12:27;5.25;5.25;3.50
55449;PMS5003;41318;58.724;50.180;2023-03-23T14:15:00;4.00;4.00;3.80
55449;PMS5003;41318;58.724;50.180;2023-03-23T14:17:53;5.25;4.00;3.00
55449;PMS5003;41318;58.724;50.180;2023-03-23T14:20:30;7.40;7.40;5.00
55449;PMS5003;41318;58.724;50.180;2023-03-23T14:23:03;11.00;11.00;7.60
55449;PMS5003;41318;58.724;50.180;2023-03-23T14:25:34;7.00;7.00;4.50
55449;PMS5003;41318;58.724;50.180;2023-03-23T14:28:15;3.00;3.00;2.00
55449;PMS5003;41318;58.724;50.180;2023-03-23T14:30:47;5.00;5.00;3.25
55449;PMS5003;41318;58.724;50.180;2023-03-23T14:33:18;4.00;4.00;4.00
55449;PMS5003;41318;58.724;50.180;2023-03-23T14:35:50;6.40;6.40;3.80
55449;PMS5003;41318;58.724;50.180;2023-03-23T14:38:21;6.80;6.80;5.00
55449;PMS5003;41318;58.724;50.180;2023-03-23T14:40:58;4.00;4.00;3.80
55449;PMS5003;41318;58.724;50.180;2023-03-23T14:43:30;4.60;4.60;3.20
55449;PMS5003;41318;58.724;50.180;2023-03-23T14:46:05;4.00;4.00;3.40
55449;PMS5003;41318;58.724;50.180;2023-03-23T14:48:37;6.00;6.00;4.40
55449;PMS5003;41318;58.724;50.180;2023-03-23T14:51:14;3.20;3.20;2.20
55449;PMS5003;41318;58.724;50.180;2023-03-23T14:53:47;3.80;3.80;2.80
55449;PMS5003;41318;58.724;50.180;2023-03-23T14:56:20;5.00;5.00;4.00
55449;PMS5003;41318;58.724;50.180;2023-03-23T14:59:12;7.20;6.60;4.40
55449;PMS5003;41318;58.724;50.180;2023-03-23T15:01:43;6.00;5.50;3.75
55449;PMS5003;41318;58.724;50.180;2023-03-23T15:04:16;24.80;22.60;13.40
55449;PMS5003;41318;58.724;50.180;2023-03-23T15:06:49;8.40;8.40;6.00
55449;PMS5003;41318;58.724;50.180;2023-03-23T15:09:22;7.00;5.80;3.40
55449;PMS5003;41318;58.724;50.180;2023-03-23T15:12:18;10.00;10.00;8.00
55449;PMS5003;41318;58.724;50.180;2023-03-23T15:14:51;8.00;8.00;7.00
55449;PMS5003;41318;58.724;50.180;2023-03-23T15:17:24;13.20;13.20;10.20
55449;PMS5003;41318;58.724;50.180;2023-03-23T15:19:56;50.00;41.60;25.80
55449;PMS5003;41318;58.724;50.180;2023-03-23T15:22:29;7.60;7.60;4.00
55449;PMS5003;41318;58.724;50.180;2023-03-23T15:28:21;13.60;13.60;9.00
55449;PMS5003;41318;58.724;50.180;2023-03-23T15:31:02;13.60;13.60;7.00
55449;PMS5003;41318;58.724;50.180;2023-03-23T15:33:38;19.60;19.60;13.00
55449;PMS5003;41318;58.724;50.180;2023-03-23T15:36:16;20.80;18.60;13.00
55449;PMS5003;41318;58.724;50.180;2023-03-23T15:39:08;24.80;23.40;14.60
55449;PMS5003;41318;58.724;50.180;2023-03-23T15:41:47;23.00;21.20;13.00
55449;PMS5003;41318;58.724;50.180;2023-03-23T15:44:33;12.40;12.40;8.00
55449;PMS5003;41318;58.724;50.180;2023-03-23T15:47:17;15.80;15.00;10.00
55449;PMS5003;41318;58.724;50.180;2023-03-23T15:49:58;15.80;15.80;9.00
55449;PMS5003;41318;58.724;50.180;2023-03-23T15:52:29;19.40;19.40;13.20
55449;PMS5003;41318;58.724;50.180;2023-03-23T15:55:01;21.40;15.80;11.60
55449;PMS5003;41318;58.724;50.180;2023-03-23T15:57:33;18.60;18.60;13.80
55449;PMS5003;41318;58.724;50.180;2023-03-23T16:00:05;23.40;23.40;13.80
55449;PMS5003;41318;58.724;50.180;2023-03-23T16:02:42;22.80;22.80;16.80
55449;PMS5003;41318;58.724;50.180;2023-03-23T16:05:14;21.60;21.60;15.00
55449;PMS5003;41318;58.724;50.180;2023-03-23T16:07:45;22.80;22.20;15.20
55449;PMS5003;41318;58.724;50.180;2023-03-23T16:10:18;19.20;19.20;13.60
55449;PMS5003;41318;58.724;50.180;2023-03-23T16:12:50;18.60;18.60;14.40
55449;PMS5003;41318;58.724;50.180;2023-03-23T16:15:21;20.20;20.20;13.00
55449;PMS5003;41318;58.724;50.180;2023-03-23T16:17:54;19.00;18.80;11.20
55449;PMS5003;41318;58.724;50.180;2023-03-23T16:20:27;22.80;22.20;14.20
55449;PMS5003;41318;58.724;50.180;2023-03-23T16:22:58;16.40;16.00;11.20
55449;PMS5003;41318;58.724;50.180;2023-03-23T16:25:30;13.00;13.00;8.00
55449;PMS5003;41318;58.724;50.180;2023-03-23T16:28:00;17.00;16.75;11.75
55449;PMS5003;41318;58.724;50.180;2023-03-23T16:30:32;18.20;18.20;13.20
55449;PMS5003;41318;58.724;50.180;2023-03-23T16:33:04;17.40;17.40;9.40
55449;PMS5003;41318;58.724;50.180;2023-03-23T16:35:35;14.40;14.40;8.80
55449;PMS5003;41318;58.724;50.180;2023-03-23T16:38:06;14.20;14.20;12.00
55449;PMS5003;41318;58.724;50.180;2023-03-23T16:40:55;14.40;14.40;10.20
55449;PMS5003;41318;58.724;50.180;2023-03-23T16:43:26;19.50;19.50;12.50